Time;durP1;ratioP1;P1;durP2;ratioP2;P2;SDS_P1;SDS_P2;PMS_P1;PMS_P2;Temp;Humidity;BMP_temperature;BMP_pressure;BME280_temperature;BME280_humidity;BME280_pressure;Samples;Min_cycle;Max_cycle;Signal;HPM_P1;HPM_P2
2023/09/07 00:01:48;;;;;;;2.97;1.50;;;;;;;-145.63;42.99;39282.41;5030447;28;20030;-66
2023/09/07 00:04:14;;;;;;;4.35;1.92;;;;;;;-145.63;43.45;39284.34;5041917;28;20034;-68
2023/09/07 00:06:43;;;;;;;2.20;1.52;;;;;;;-145.63;43.47;39280.44;5031830;28;20314;-67
2023/09/07 00:09:11;;;;;;;2.13;1.92;;;;;;;-145.63;43.74;39239.38;5039408;28;20029;-67
2023/09/07 00:11:37;;;;;;;3.42;3.13;;;;;;;-145.63;43.57;39278.47;5035017;28;20018;-67
2023/09/07 00:14:02;;;;;;;4.55;3.10;;;;;;;-145.63;44.12;39262.84;5030288;28;20096;-67
2023/09/07 00:16:28;;;;;;;1.85;0.95;;;;;;;-145.63;44.18;39278.47;5028409;28;20030;-66
2023/09/07 00:18:54;;;;;;;1.10;0.88;;;;;;;-145.63;43.74;39262.84;5021866;28;20326;-66
2023/09/07 00:21:19;;;;;;;2.97;1.33;;;;;;;-145.63;44.55;39303.91;5031453;28;20021;-66
2023/09/07 00:23:45;;;;;;;1.60;1.23;;;;;;;-145.63;44.33;39296.09;5032518;28;20320;-66
2023/09/07 00:26:12;;;;;;;1.95;0.90;;;;;;;-145.63;44.34;39284.34;5038759;28;20029;-67
2023/09/07 00:28:38;;;;;;;3.50;1.33;;;;;;;-145.63;43.92;39286.31;5038457;28;20060;-67
2023/09/07 00:31:04;;;;;;;1.92;1.10;;;;;;;-145.63;44.14;39309.78;5034833;28;20029;-66
2023/09/07 00:33:29;;;;;;;1.58;0.90;;;;;;;-145.63;43.74;39305.88;5033545;28;20031;-66
2023/09/07 00:35:55;;;;;;;2.38;1.63;;;;;;;-145.63;44.67;39241.31;5029503;28;20044;-67
2023/09/07 00:38:21;;;;;;;1.40;0.85;;;;;;;-145.63;43.65;39298.03;5037618;28;20029;-68
2023/09/07 00:40:46;;;;;;;2.58;2.13;;;;;;;-145.63;44.12;39296.09;5023229;28;20230;-66
2023/09/07 00:43:12;;;;;;;1.88;1.15;;;;;;;-145.63;44.49;39280.44;5026434;28;20029;-66
2023/09/07 00:45:39;;;;;;;3.17;1.40;;;;;;;-145.63;43.89;39288.25;5023172;28;20068;-66
2023/09/07 00:48:05;;;;;;;1.35;1.08;;;;;;;-145.63;44.00;39290.22;5025377;28;20030;-66
2023/09/07 00:50:31;;;;;;;2.42;1.65;;;;;;;-145.63;44.10;39274.56;5030978;28;20322;-67
2023/09/07 00:52:59;;;;;;;2.83;1.73;;;;;;;-145.63;44.35;39298.03;5025587;28;20075;-65
2023/09/07 00:55:27;;;;;;;1.80;0.98;;;;;;;-145.63;44.77;39282.41;5033479;28;20033;-66
2023/09/07 00:57:55;;;;;;;2.25;1.20;;;;;;;-145.63;45.24;39035.97;5012406;28;20029;-66
2023/09/07 01:00:20;;;;;;;3.45;1.10;;;;;;;-145.63;44.96;39292.19;5026586;28;20028;-67
2023/09/07 01:02:46;;;;;;;4.32;3.30;;;;;;;-145.63;44.94;39317.59;5030143;28;20029;-67
2023/09/07 01:05:12;;;;;;;2.20;1.10;;;;;;;-145.63;45.38;39294.13;5033595;28;20033;-68
2023/09/07 01:07:45;;;;;;;3.90;1.67;;;;;;;-145.63;45.85;39149.41;5032755;28;20029;-64
2023/09/07 01:10:11;;;;;;;2.17;0.93;;;;;;;-145.63;45.38;39307.81;5024190;28;20279;-66
2023/09/07 01:12:37;;;;;;;2.63;1.00;;;;;;;-145.63;45.56;39298.03;5028439;28;20023;-67
2023/09/07 01:15:04;;;;;;;1.83;1.10;;;;;;;-145.63;46.22;39341.06;5035786;28;20366;-68
2023/09/07 01:17:33;;;;;;;3.35;1.25;;;;;;;-145.63;45.98;39274.56;5035521;28;20036;-66
2023/09/07 01:20:09;;;;;;;1.73;0.93;;;;;;;-145.63;46.95;39339.13;5037402;28;20021;-66
2023/09/07 01:22:36;;;;;;;3.42;1.08;;;;;;;-145.63;46.45;39300.00;5023270;28;20101;-67
2023/09/07 01:25:02;;;;;;;2.08;1.00;;;;;;;-145.63;46.87;39284.34;5031143;28;20064;-67
2023/09/07 01:27:29;;;;;;;3.80;1.00;;;;;;;-145.63;46.38;39296.09;5035194;28;20041;-67
2023/09/07 01:29:55;;;;;;;2.10;1.33;;;;;;;-145.63;47.26;39292.19;5027761;28;20022;-69
2023/09/07 01:32:21;;;;;;;4.63;2.72;;;;;;;-145.63;47.51;39313.69;5032510;28;20029;-67
2023/09/07 01:34:46;;;;;;;3.20;1.17;;;;;;;-145.63;47.47;39323.47;5037055;28;20034;-67
2023/09/07 01:37:12;;;;;;;1.55;1.02;;;;;;;-145.63;46.60;39313.69;5031359;28;20328;-67
2023/09/07 01:39:37;;;;;;;1.98;1.00;;;;;;;-145.63;47.69;39300.00;5035058;28;20023;-67
2023/09/07 01:42:03;;;;;;;1.75;1.08;;;;;;;-145.63;47.00;39305.88;5035793;28;20033;-67
2023/09/07 01:44:29;;;;;;;1.73;1.10;;;;;;;-145.63;47.71;39298.03;5033674;28;20033;-67
2023/09/07 01:46:55;;;;;;;1.13;1.02;;;;;;;-145.63;47.04;39296.09;5036039;28;20049;-66
2023/09/07 01:49:21;;;;;;;3.25;1.00;;;;;;;-145.63;47.17;39288.25;5030599;28;20204;-67
2023/09/07 01:51:46;;;;;;;2.75;1.42;;;;;;;-145.63;48.25;39305.88;5035412;28;20222;-65
2023/09/07 01:54:12;;;;;;;2.63;1.08;;;;;;;-145.63;48.05;39268.72;5025948;28;20041;-66
2023/09/07 01:56:39;;;;;;;3.03;1.05;;;;;;;-145.63;48.21;39301.94;5033197;28;20100;-66
2023/09/07 01:59:04;;;;;;;1.73;1.40;;;;;;;-145.63;48.05;39303.91;5035105;28;20022;-66
2023/09/07 02:01:31;;;;;;;6.25;1.20;;;;;;;-145.63;48.40;39303.91;5041695;28;20052;-66
2023/09/07 02:03:57;;;;;;;2.25;1.30;;;;;;;-145.63;48.55;39317.59;5039962;28;20029;-66
2023/09/07 02:06:23;;;;;;;3.05;1.30;;;;;;;-145.63;48.31;39317.59;5044490;28;20021;-66
2023/09/07 02:08:49;;;;;;;3.78;1.60;;;;;;;-145.63;48.71;39249.16;5036428;28;20190;-65
2023/09/07 02:11:15;;;;;;;1.98;1.17;;;;;;;-145.63;49.00;39327.38;5044586;28;20060;-65
2023/09/07 02:13:42;;;;;;;2.30;0.90;;;;;;;-145.63;48.60;39303.91;5041131;28;20184;-65
2023/09/07 02:16:09;;;;;;;2.53;1.05;;;;;;;-145.63;49.36;39286.31;5028904;28;20081;-66
2023/09/07 02:18:37;;;;;;;1.30;0.90;;;;;;;-145.63;48.87;39360.63;5041149;28;20237;-66
2023/09/07 02:21:23;;;;;;;1.42;1.05;;;;;;;-145.63;49.44;39241.31;5032486;28;20057;-65
2023/09/07 02:23:48;;;;;;;1.55;0.98;;;;;;;-145.63;49.09;39333.25;5041823;28;20045;-66
2023/09/07 02:26:14;;;;;;;4.13;1.48;;;;;;;-145.63;48.89;39292.19;5030235;28;20032;-67
2023/09/07 02:28:39;;;;;;;7.43;1.90;;;;;;;-145.63;49.25;39317.59;5026975;28;20030;-66
2023/09/07 02:31:06;;;;;;;2.95;1.23;;;;;;;-145.63;49.18;39294.13;5039902;28;20026;-66
2023/09/07 02:33:33;;;;;;;5.20;1.10;;;;;;;-145.63;49.42;39321.50;5034143;28;20285;-66
2023/09/07 02:35:59;;;;;;;1.80;0.90;;;;;;;-145.63;49.04;39317.59;5030943;28;20071;-67
2023/09/07 02:38:24;;;;;;;3.53;1.80;;;;;;;-145.63;48.93;39319.56;5031187;28;20022;-67
2023/09/07 02:40:50;;;;;;;3.42;1.75;;;;;;;-145.63;49.06;39315.66;5039981;28;20022;-66
2023/09/07 02:43:16;;;;;;;5.07;1.35;;;;;;;-145.63;49.04;39305.88;5044511;28;20029;-67
2023/09/07 02:45:42;;;;;;;3.75;1.23;;;;;;;-145.63;49.57;39325.41;5034936;28;20018;-66
2023/09/07 02:48:08;;;;;;;2.67;1.52;;;;;;;-145.63;49.19;39321.50;5042127;28;20036;-67
2023/09/07 02:50:34;;;;;;;1.52;0.95;;;;;;;-145.63;48.79;39315.66;5033791;28;20033;-65
2023/09/07 02:53:01;;;;;;;2.53;1.20;;;;;;;-145.63;49.18;39333.25;5015183;28;20021;-66
2023/09/07 02:55:28;;;;;;;1.15;0.93;;;;;;;-145.63;49.73;39311.72;5042856;28;20037;-65
2023/09/07 02:57:55;;;;;;;1.95;1.02;;;;;;;-145.63;48.93;39309.78;5035293;28;20025;-65
2023/09/07 03:00:21;;;;;;;2.17;1.20;;;;;;;-145.63;48.88;39327.38;5027418;28;20121;-67
2023/09/07 03:02:48;;;;;;;2.03;1.63;;;;;;;-145.63;48.85;39333.25;5030376;28;20219;-67
2023/09/07 03:05:17;;;;;;;3.33;1.35;;;;;;;-145.63;48.93;39298.03;5041498;28;20026;-67
2023/09/07 03:07:46;;;;;;;2.10;1.70;;;;;;;-145.63;49.38;38488.44;5040622;28;20330;-67
2023/09/07 03:10:12;;;;;;;2.03;1.20;;;;;;;-145.63;49.08;39315.66;5036874;28;20025;-67
2023/09/07 03:12:38;;;;;;;3.13;0.82;;;;;;;-145.63;49.39;39286.31;5039741;28;20039;-66
2023/09/07 03:15:05;;;;;;;1.70;1.05;;;;;;;-145.63;49.53;39313.69;5032180;28;20106;-66
2023/09/07 03:17:32;;;;;;;1.48;1.20;;;;;;;-145.63;49.60;39319.56;5011504;28;20249;-67
2023/09/07 03:19:58;;;;;;;3.47;1.08;;;;;;;-145.63;49.50;39344.97;5029638;28;20026;-68
2023/09/07 03:22:24;;;;;;;4.50;1.30;;;;;;;-145.63;49.13;39352.81;5033547;28;20030;-66
2023/09/07 03:24:52;;;;;;;3.17;1.10;;;;;;;-145.63;49.25;39337.16;5024835;28;20161;-65
2023/09/07 03:27:18;;;;;;;2.75;1.23;;;;;;;-145.63;49.42;39315.66;5027318;28;20037;-66
2023/09/07 03:29:44;;;;;;;1.83;1.10;;;;;;;-145.63;49.63;39301.94;5031799;28;20025;-65
2023/09/07 03:32:10;;;;;;;1.85;1.00;;;;;;;-145.63;49.53;39307.81;5036603;28;20218;-66
2023/09/07 03:34:36;;;;;;;2.53;1.48;;;;;;;-145.63;49.67;39337.16;5035761;28;20021;-66
2023/09/07 03:37:05;;;;;;;7.43;1.55;;;;;;;-145.63;49.46;39352.81;5042063;28;20019;-66
2023/09/07 03:39:32;;;;;;;2.05;0.98;;;;;;;-145.63;49.37;39309.78;5030694;28;20041;-66
2023/09/07 03:41:58;;;;;;;1.90;0.95;;;;;;;-145.63;49.20;39344.97;5036437;28;20092;-68
2023/09/07 03:44:24;;;;;;;2.28;1.10;;;;;;;-145.63;49.42;39341.06;5033253;28;20029;-66
2023/09/07 03:46:49;;;;;;;2.65;1.30;;;;;;;-145.63;49.13;39301.94;5034956;28;20030;-66
2023/09/07 03:49:15;;;;;;;4.03;1.35;;;;;;;-145.63;49.32;39288.25;5040021;28;20233;-65
2023/09/07 03:51:41;;;;;;;4.72;1.33;;;;;;;-145.63;49.51;39303.91;5029524;28;20045;-65
2023/09/07 03:54:06;;;;;;;3.33;1.35;;;;;;;-145.63;49.77;39344.97;5038003;28;20033;-66
2023/09/07 03:56:32;;;;;;;3.08;1.10;;;;;;;-145.63;49.22;39317.59;5033154;28;20080;-66
2023/09/07 03:58:58;;;;;;;2.47;1.00;;;;;;;-145.63;49.02;39335.19;5034404;28;20095;-66
2023/09/07 04:01:23;;;;;;;3.05;1.33;;;;;;;-145.63;49.23;39296.09;5035052;28;20080;-64
2023/09/07 04:03:50;;;;;;;3.72;1.35;;;;;;;-145.63;49.00;39280.44;5030065;28;20036;-65
2023/09/07 04:06:16;;;;;;;2.42;1.20;;;;;;;-145.63;48.65;39333.25;5027509;28;20030;-65
2023/09/07 04:08:41;;;;;;;3.38;1.40;;;;;;;-145.63;49.08;39325.41;5025339;28;20030;-65
2023/09/07 04:11:07;;;;;;;3.90;1.25;;;;;;;-145.63;49.09;39292.19;5033759;28;20026;-66
2023/09/07 04:13:33;;;;;;;3.45;1.48;;;;;;;-145.63;48.75;39327.38;5041011;28;20026;-65
2023/09/07 04:15:58;;;;;;;2.60;1.25;;;;;;;-145.63;49.25;39294.13;5028040;28;20252;-65
2023/09/07 04:18:24;;;;;;;3.47;1.50;;;;;;;-145.63;49.25;39266.75;5024489;28;20033;-66
2023/09/07 04:20:50;;;;;;;3.42;1.48;;;;;;;-145.63;48.52;39288.25;5030843;28;20033;-66
2023/09/07 04:23:16;;;;;;;3.05;1.10;;;;;;;-145.63;48.56;39321.50;5029513;28;20190;-67
2023/09/07 04:25:42;;;;;;;2.65;1.20;;;;;;;-145.63;48.71;39309.78;5040653;28;20041;-65
2023/09/07 04:28:08;;;;;;;2.67;1.30;;;;;;;-145.63;48.86;39344.97;5042883;28;20045;-67
2023/09/07 04:30:38;;;;;;;3.72;1.45;;;;;;;-145.63;48.81;39321.50;5031127;28;20108;-67
2023/09/07 04:33:04;;;;;;;4.00;1.10;;;;;;;-145.63;49.30;39298.03;5033836;28;20088;-66
2023/09/07 04:35:30;;;;;;;3.65;1.33;;;;;;;-145.63;48.54;39321.50;5026831;28;20036;-66
2023/09/07 04:37:56;;;;;;;5.47;1.40;;;;;;;-145.63;47.91;39282.41;5015512;28;20022;-66
2023/09/07 04:40:22;;;;;;;1.75;1.13;;;;;;;-145.63;48.29;39305.88;5029223;28;20025;-66
2023/09/07 04:42:48;;;;;;;2.08;1.08;;;;;;;-145.63;48.67;39294.13;5024118;28;20351;-64
2023/09/07 04:45:14;;;;;;;1.83;1.00;;;;;;;-145.63;48.12;39298.03;5025841;28;20033;-67
2023/09/07 04:47:39;;;;;;;4.75;1.30;;;;;;;-145.63;48.50;39282.41;5034179;28;20041;-64
2023/09/07 04:50:06;;;;;;;2.47;1.00;;;;;;;-145.63;48.12;39266.75;5036576;28;20105;-66
2023/09/07 04:52:32;;;;;;;2.63;1.40;;;;;;;-145.63;48.55;39282.41;5030771;28;20032;-66
2023/09/07 04:54:58;;;;;;;2.45;1.30;;;;;;;-145.63;48.67;39307.81;5035862;28;20025;-65
2023/09/07 04:57:23;;;;;;;1.50;0.93;;;;;;;-145.63;48.23;39282.41;5042228;28;20028;-65
2023/09/07 04:59:49;;;;;;;3.53;1.40;;;;;;;-145.63;48.59;39286.31;5018043;28;20214;-65
2023/09/07 05:02:14;;;;;;;6.50;2.08;;;;;;;-145.63;48.46;39301.94;5015243;28;20034;-66
2023/09/07 05:04:40;;;;;;;1.75;1.27;;;;;;;-145.63;47.75;39110.28;5026365;28;20034;-65
2023/09/07 05:07:06;;;;;;;3.97;1.20;;;;;;;-145.63;48.53;39270.66;5027826;28;20048;-65
2023/09/07 05:09:33;;;;;;;3.35;1.00;;;;;;;-145.63;47.79;39286.31;5022612;28;20310;-64
2023/09/07 05:11:58;;;;;;;1.20;0.90;;;;;;;-145.63;48.59;39298.03;5033720;28;20029;-65
2023/09/07 05:14:25;;;;;;;3.13;1.33;;;;;;;-145.63;48.29;39235.47;5041497;28;20029;-65
2023/09/07 05:16:51;;;;;;;3.58;1.20;;;;;;;-145.63;47.91;39260.88;5038421;28;20033;-66
2023/09/07 05:19:16;;;;;;;3.15;1.00;;;;;;;-145.63;48.13;39286.31;5041795;28;20040;-66
2023/09/07 05:21:42;;;;;;;3.40;1.17;;;;;;;-145.63;47.64;39255.00;5025787;28;20030;-65
2023/09/07 05:24:08;;;;;;;6.10;1.50;;;;;;;-145.63;47.87;39266.75;5029205;28;20037;-66
2023/09/07 05:26:34;;;;;;;3.45;1.10;;;;;;;-145.63;47.49;39262.84;5040702;28;20025;-66
2023/09/07 05:28:59;;;;;;;3.05;1.30;;;;;;;-145.63;47.70;39274.56;5037321;28;20022;-67
2023/09/07 05:31:25;;;;;;;1.88;1.20;;;;;;;-145.63;46.97;39255.00;5038960;28;20029;-66
2023/09/07 05:33:54;;;;;;;3.42;0.88;;;;;;;-145.63;47.51;39282.41;5040633;28;20027;-67
2023/09/07 05:36:19;;;;;;;5.30;1.20;;;;;;;-145.63;47.17;39266.75;5035864;28;20348;-66
2023/09/07 05:38:45;;;;;;;1.77;1.10;;;;;;;-145.63;46.88;39239.38;5043970;28;20033;-65
2023/09/07 05:41:10;;;;;;;3.35;1.10;;;;;;;-145.63;46.92;39215.91;5037367;28;20068;-66
2023/09/07 05:43:36;;;;;;;3.78;0.82;;;;;;;-145.63;46.67;39219.81;5022553;28;20025;-66
2023/09/07 05:46:02;;;;;;;1.77;0.82;;;;;;;-145.63;46.56;38642.91;5044983;28;20520;-66
2023/09/07 05:48:28;;;;;;;1.63;1.00;;;;;;;-145.63;47.11;39270.66;5035198;28;20335;-67
2023/09/07 05:50:53;;;;;;;2.97;0.90;;;;;;;-145.63;46.54;39192.44;5043449;28;20344;-66
2023/09/07 05:53:22;;;;;;;1.92;0.90;;;;;;;-145.63;46.77;39235.47;5035963;28;20053;-65
2023/09/07 05:55:47;;;;;;;4.00;0.95;;;;;;;-145.63;47.00;39243.28;5039416;28;20336;-66
2023/09/07 05:58:14;;;;;;;1.38;0.90;;;;;;;-145.63;45.88;39225.69;5045779;28;20092;-66
2023/09/07 06:00:40;;;;;;;2.50;0.90;;;;;;;-145.63;45.94;39210.03;5030046;28;20093;-67
2023/09/07 06:03:07;;;;;;;78.28;6.93;;;;;;;-145.63;46.11;39245.25;5036668;28;20022;-67
2023/09/07 06:05:36;;;;;;;3.00;1.10;;;;;;;-145.63;46.16;39266.75;5032397;28;20028;-66
2023/09/07 06:08:02;;;;;;;0.77;0.77;;;;;;;-145.63;44.88;39258.94;5025582;28;20033;-66
2023/09/07 06:10:29;;;;;;;6.10;1.20;;;;;;;-145.63;44.96;39213.94;5030265;28;20063;-66
2023/09/07 06:12:56;;;;;;;2.92;1.08;;;;;;;-145.63;45.41;39233.50;5034038;28;20067;-65
2023/09/07 06:15:22;;;;;;;1.83;0.77;;;;;;;-145.63;44.89;39202.22;5039097;28;20374;-69
2023/09/07 06:17:48;;;;;;;3.60;1.23;;;;;;;-145.63;44.99;39186.56;5040750;28;20033;-67
2023/09/07 06:20:13;;;;;;;3.42;1.17;;;;;;;-145.63;44.75;39247.19;5040437;28;20037;-66
2023/09/07 06:22:39;;;;;;;2.08;0.90;;;;;;;-145.63;44.50;39233.50;5029763;28;20067;-65
2023/09/07 06:25:05;;;;;;;3.83;0.98;;;;;;;-145.63;44.90;39192.44;5034534;28;20041;-64
2023/09/07 06:27:31;;;;;;;2.58;0.93;;;;;;;-145.63;44.45;39243.28;5041031;28;20055;-66
2023/09/07 06:29:56;;;;;;;6.10;0.73;;;;;;;-145.63;44.83;39223.72;5032573;28;20041;-66
2023/09/07 06:32:22;;;;;;;6.15;1.20;;;;;;;-145.63;44.25;39196.34;5027194;28;20337;-66
2023/09/07 06:34:48;;;;;;;3.58;1.25;;;;;;;-145.63;43.91;39184.59;5028941;28;20037;-65
2023/09/07 06:37:13;;;;;;;3.50;0.88;;;;;;;-145.63;43.72;39184.59;5034930;28;20021;-64
2023/09/07 06:39:42;;;;;;;0.80;0.70;;;;;;;-145.63;43.38;39176.78;5027407;28;20079;-65
2023/09/07 06:42:09;;;;;;;2.33;1.02;;;;;;;-145.63;42.98;39145.50;5025955;28;20098;-65
2023/09/07 06:44:35;;;;;;;4.00;1.10;;;;;;;-145.63;43.97;39172.88;5039930;28;20080;-65
2023/09/07 06:47:00;;;;;;;3.40;1.15;;;;;;;-145.63;43.03;39227.63;5040195;28;20068;-66
2023/09/07 06:49:29;;;;;;;1.10;0.90;;;;;;;-145.63;43.13;39159.19;5035897;28;20329;-66
2023/09/07 06:51:56;;;;;;;2.47;1.13;;;;;;;-145.63;42.12;39110.28;5033471;28;20037;-65
2023/09/07 06:54:22;;;;;;;3.03;1.02;;;;;;;-145.63;42.06;39147.44;5031126;28;20030;-67
2023/09/07 06:56:47;;;;;;;3.83;1.80;;;;;;;-145.63;42.13;39143.53;5037884;28;20040;-65
2023/09/07 06:59:13;;;;;;;2.10;1.15;;;;;;;-145.63;42.31;39145.50;5038624;28;20034;-66
2023/09/07 07:01:39;;;;;;;3.90;1.35;;;;;;;-145.63;41.64;39172.88;5034128;28;20025;-67
2023/09/07 07:04:05;;;;;;;3.13;1.17;;;;;;;-145.63;41.40;39163.09;5039985;28;20033;-65
2023/09/07 07:06:30;;;;;;;3.13;0.70;;;;;;;-145.63;41.29;39137.69;5030061;28;20039;-67
2023/09/07 07:08:56;;;;;;;2.65;0.80;;;;;;;-145.63;41.08;39200.25;5038581;28;20033;-66
2023/09/07 07:11:22;;;;;;;1.65;1.20;;;;;;;-145.63;40.59;39114.22;5037102;28;20049;-66
2023/09/07 07:13:48;;;;;;;4.13;1.30;;;;;;;-145.63;40.33;39135.72;5034667;28;20025;-66
2023/09/07 07:16:13;;;;;;;2.05;0.75;;;;;;;-145.63;41.25;39141.59;5030940;28;20030;-67
2023/09/07 07:18:39;;;;;;;2.33;1.48;;;;;;;-145.63;40.28;39127.91;5043369;28;20049;-66
2023/09/07 07:21:05;;;;;;;2.95;0.90;;;;;;;-145.63;40.15;39151.38;5037468;28;20281;-66
2023/09/07 07:23:31;;;;;;;0.77;0.57;;;;;;;-145.63;40.09;39090.75;5028328;28;20088;-66
2023/09/07 07:25:57;;;;;;;2.53;2.10;;;;;;;-145.63;40.21;39123.97;5024502;28;20033;-66
2023/09/07 07:28:23;;;;;;;2.30;1.92;;;;;;;-145.63;39.45;39112.25;5040792;28;20033;-67
2023/09/07 07:30:48;;;;;;;1.48;1.20;;;;;;;-145.63;39.38;39125.94;5028761;28;20044;-66
2023/09/07 07:33:14;;;;;;;2.35;0.70;;;;;;;-145.63;39.39;39147.44;5037018;28;20310;-65
2023/09/07 07:35:40;;;;;;;2.78;0.90;;;;;;;-145.63;39.20;39118.13;5024872;28;20029;-65
2023/09/07 07:38:08;;;;;;;4.45;0.95;;;;;;;-145.63;39.19;39094.66;5033016;28;20092;-65
2023/09/07 07:40:34;;;;;;;3.90;1.02;;;;;;;-145.63;39.06;39108.34;5023828;28;20077;-66
2023/09/07 07:43:00;;;;;;;2.25;1.25;;;;;;;-145.63;39.01;39123.97;5026842;28;20032;-64
2023/09/07 07:45:25;;;;;;;1.42;1.00;;;;;;;-145.63;39.37;39086.81;5025083;28;20025;-64
2023/09/07 07:47:53;;;;;;;1.75;1.05;;;;;;;-145.63;38.58;39086.81;5019224;28;20027;-65
2023/09/07 07:50:19;;;;;;;3.92;0.80;;;;;;;-145.63;38.81;39075.09;5023214;28;20029;-65
2023/09/07 07:52:45;;;;;;;4.20;1.00;;;;;;;-145.63;38.06;39069.22;5040076;28;20064;-65
2023/09/07 07:55:12;;;;;;;3.10;0.70;;;;;;;-145.63;37.78;39114.22;5022613;28;20065;-65
2023/09/07 07:57:37;;;;;;;5.10;0.90;;;;;;;-145.63;37.69;39039.88;5020305;28;20309;-65
2023/09/07 08:00:04;;;;;;;2.20;0.98;;;;;;;-145.63;37.23;39071.19;5019083;28;20026;-67
2023/09/07 08:02:31;;;;;;;1.08;0.60;;;;;;;-145.63;36.67;39065.31;5027228;28;20021;-64
2023/09/07 08:05:00;;;;;;;2.25;1.50;;;;;;;-145.63;36.67;39123.97;5018209;28;20048;-65
2023/09/07 08:07:26;;;;;;;1.20;0.90;;;;;;;-145.63;37.39;39116.16;5019060;28;20026;-66
2023/09/07 08:09:52;;;;;;;1.92;1.02;;;;;;;-145.63;37.65;39108.34;5018849;28;20184;-66
2023/09/07 08:12:18;;;;;;;3.22;1.02;;;;;;;-145.63;36.84;39055.53;5019008;28;20033;-65
2023/09/07 08:14:43;;;;;;;4.13;0.98;;;;;;;-145.63;36.09;39114.22;5021975;28;20038;-66
2023/09/07 08:17:09;;;;;;;2.28;0.73;;;;;;;-145.63;35.85;39073.13;5016616;28;20017;-65
2023/09/07 08:19:35;;;;;;;1.98;1.00;;;;;;;-145.63;36.33;39051.63;5017810;28;20063;-65
2023/09/07 08:22:03;;;;;;;5.45;0.90;;;;;;;-145.63;36.33;39075.09;5028307;28;20029;-65
2023/09/07 08:24:29;;;;;;;2.80;1.10;;;;;;;-145.63;35.18;39014.47;5023056;28;20049;-64
2023/09/07 08:26:57;;;;;;;2.80;1.30;;;;;;;-145.63;35.51;39067.28;5019062;28;20049;-63
2023/09/07 08:29:27;;;;;;;1.88;0.82;;;;;;;-145.63;35.33;39034.03;5028061;28;20021;-64
2023/09/07 08:31:53;;;;;;;2.92;0.88;;;;;;;-145.63;34.07;39037.94;5040298;28;20029;-66
2023/09/07 08:34:20;;;;;;;1.88;0.70;;;;;;;-145.63;34.57;39051.63;5035439;28;20052;-66
2023/09/07 08:36:47;;;;;;;2.17;0.80;;;;;;;-145.63;33.83;39069.22;5029482;28;20044;-67
2023/09/07 08:39:13;;;;;;;3.15;0.80;;;;;;;-145.63;34.38;39098.56;5023274;28;20029;-67
2023/09/07 08:41:46;;;;;;;3.17;1.00;;;;;;;-145.63;34.87;39000.78;5014390;28;20089;-66
2023/09/07 08:44:21;;;;;;;2.75;0.73;;;;;;;-145.63;34.26;39049.66;5008638;28;20189;-65
2023/09/07 08:46:51;;;;;;;2.53;0.90;;;;;;;-145.63;33.90;39020.34;5024259;28;20030;-66
2023/09/07 08:49:20;;;;;;;2.92;0.85;;;;;;;-145.63;33.98;38985.13;5012398;28;20025;-66
2023/09/07 08:51:46;;;;;;;4.38;0.82;;;;;;;-145.63;33.05;38932.34;5020346;28;20089;-67
2023/09/07 08:54:12;;;;;;;3.30;0.80;;;;;;;-145.63;32.24;38965.56;5022924;28;20040;-67
2023/09/07 08:56:38;;;;;;;0.88;0.77;;;;;;;-145.63;32.33;38957.75;5023145;28;20030;-68
2023/09/07 08:59:04;;;;;;;2.05;0.70;;;;;;;-145.63;31.60;39004.69;5008799;28;20033;-66
2023/09/07 09:01:31;;;;;;;4.50;0.80;;;;;;;-145.63;30.66;38942.13;5022925;28;20033;-66
2023/09/07 09:04:00;;;;;;;1.52;0.73;;;;;;;-145.63;30.56;38961.66;5015371;28;20372;-67
2023/09/07 09:06:25;;;;;;;7.45;1.00;;;;;;;-145.63;30.70;39035.97;5016153;28;20247;-66
2023/09/07 09:08:52;;;;;;;2.20;0.70;;;;;;;-145.63;30.72;38969.50;5016083;28;20026;-66
2023/09/07 09:11:19;;;;;;;2.90;1.05;;;;;;;-145.63;30.40;39061.41;5017550;28;20025;-66
2023/09/07 09:13:45;;;;;;;10.20;1.33;;;;;;;-145.63;30.38;39057.50;5020138;28;20382;-67
2023/09/07 09:16:12;;;;;;;2.15;1.30;;;;;;;-145.63;30.59;38975.34;5017949;28;20064;-67
2023/09/07 09:18:47;;;;;;;3.58;1.00;;;;;;;-145.63;30.29;38985.13;5017266;28;20018;-67
2023/09/07 09:21:14;;;;;;;1.10;0.80;;;;;;;-145.63;30.39;39039.88;5024967;28;20041;-66
2023/09/07 09:23:41;;;;;;;2.15;0.98;;;;;;;-145.63;30.85;38922.56;5024321;28;20046;-67
2023/09/07 09:26:06;;;;;;;1.00;0.70;;;;;;;-145.63;31.02;39002.72;5026099;28;20034;-67
2023/09/07 09:28:33;;;;;;;2.20;0.60;;;;;;;-145.63;31.25;38996.88;5025530;28;20266;-65
2023/09/07 09:31:03;;;;;;;1.33;0.80;;;;;;;-145.63;31.28;39004.69;5021867;28;20021;-66
2023/09/07 09:33:33;;;;;;;1.95;0.85;;;;;;;-145.63;30.70;39026.19;5024442;28;20032;-66
2023/09/07 09:35:59;;;;;;;1.13;0.70;;;;;;;-145.63;31.16;39008.59;5016779;28;20026;-65
2023/09/07 09:38:25;;;;;;;1.35;0.60;;;;;;;-145.63;30.00;39018.38;5017057;28;20026;-66
2023/09/07 09:40:52;;;;;;;2.50;0.60;;;;;;;-145.63;30.10;39035.97;5024490;28;20256;-67
2023/09/07 09:43:20;;;;;;;2.80;0.73;;;;;;;-145.63;30.31;38998.81;5031459;28;20026;-66
2023/09/07 09:45:46;;;;;;;4.43;0.70;;;;;;;-145.63;29.72;38977.31;5031818;28;20037;-68
2023/09/07 09:48:13;;;;;;;1.67;0.80;;;;;;;-145.63;30.01;38965.56;5029989;28;20026;-67
2023/09/07 09:50:40;;;;;;;0.93;0.73;;;;;;;-145.63;29.78;38934.28;5033826;28;20119;-66
2023/09/07 09:53:09;;;;;;;2.75;0.80;;;;;;;-145.63;29.80;39008.59;5029821;28;20025;-65
2023/09/07 09:55:35;;;;;;;1.98;1.17;;;;;;;-145.63;29.27;39014.47;5032541;28;20025;-67
2023/09/07 09:58:00;;;;;;;3.35;1.05;;;;;;;-145.63;29.64;39006.66;5037392;28;20135;-68
2023/09/07 10:00:28;;;;;;;4.25;1.10;;;;;;;-145.63;30.27;38836.50;5030041;28;20500;-65
2023/09/07 10:03:07;;;;;;;1.88;1.17;;;;;;;-145.63;30.27;39028.16;5022017;28;20029;-66
2023/09/07 10:05:34;;;;;;;4.45;1.20;;;;;;;-145.63;30.23;38955.81;5013077;28;20029;-66
2023/09/07 10:08:05;;;;;;;3.17;1.00;;;;;;;-145.63;30.16;39002.72;5025810;28;20021;-66
2023/09/07 10:10:36;;;;;;;3.13;1.00;;;;;;;-145.63;29.79;39026.19;5031508;28;20022;-66
2023/09/07 10:13:03;;;;;;;1.33;0.82;;;;;;;-145.63;30.43;38961.66;5031682;28;20100;-67
2023/09/07 10:15:29;;;;;;;1.17;0.93;;;;;;;-145.63;30.39;39028.16;5028749;28;20092;-66
2023/09/07 10:18:15;;;;;;;4.53;0.80;;;;;;;-145.63;30.44;39043.81;5027723;28;20091;-68
2023/09/07 10:20:58;;;;;;;3.72;0.98;;;;;;;-145.63;30.64;39034.03;5029677;28;20326;-67
2023/09/07 10:23:37;;;;;;;2.08;0.70;;;;;;;-145.63;29.97;39043.81;5027991;28;20139;-67
2023/09/07 10:26:04;;;;;;;1.75;0.90;;;;;;;-145.63;29.93;39000.78;5016992;28;20033;-66
2023/09/07 10:28:30;;;;;;;4.35;0.80;;;;;;;-145.63;29.81;38977.31;5022759;28;20055;-66
2023/09/07 10:31:05;;;;;;;3.03;0.82;;;;;;;-145.63;30.28;38996.88;5024246;28;20067;-66
2023/09/07 10:33:34;;;;;;;6.75;1.63;;;;;;;-145.63;29.99;39032.06;5016571;28;20054;-67
2023/09/07 10:36:01;;;;;;;2.22;0.77;;;;;;;-145.63;29.65;38930.38;5018592;28;20033;-67
2023/09/07 10:38:27;;;;;;;1.98;1.05;;;;;;;-145.63;29.66;39028.16;5016339;28;20018;-67
2023/09/07 10:40:58;;;;;;;1.92;0.82;;;;;;;-145.63;30.70;39028.16;5017237;28;20091;-68
2023/09/07 10:43:28;;;;;;;1.67;1.02;;;;;;;-145.63;30.44;39061.41;5030424;28;20052;-66
2023/09/07 10:45:56;;;;;;;2.60;1.00;;;;;;;-145.63;30.08;38987.09;5027772;28;20483;-67
2023/09/07 10:48:21;;;;;;;7.35;1.17;;;;;;;-145.63;29.57;38971.44;5032964;28;20025;-66
2023/09/07 10:50:48;;;;;;;2.65;0.90;;;;;;;-145.63;29.56;38953.84;5031456;28;20044;-66
2023/09/07 10:53:15;;;;;;;2.08;0.95;;;;;;;-145.63;29.52;38975.34;5009035;28;20025;-65
2023/09/07 10:55:44;;;;;;;2.20;0.93;;;;;;;-145.63;29.73;39010.56;5018792;28;20163;-66
2023/09/07 10:58:10;;;;;;;3.83;1.00;;;;;;;-145.63;29.26;39012.50;5025087;28;20096;-66
2023/09/07 11:00:37;;;;;;;3.83;1.02;;;;;;;-145.63;30.03;39000.78;5019808;28;20081;-66
2023/09/07 11:03:09;;;;;;;3.20;0.93;;;;;;;-145.63;30.05;39024.25;5015461;28;20045;-66
2023/09/07 11:05:37;;;;;;;0.90;0.70;;;;;;;-145.63;30.29;39016.44;5024324;28;20037;-66
2023/09/07 11:08:07;;;;;;;1.90;0.93;;;;;;;-145.63;30.81;39028.16;5025178;28;20038;-66
2023/09/07 11:10:34;;;;;;;0.80;0.80;;;;;;;-145.63;31.08;39030.13;5024103;28;20087;-66
2023/09/07 11:13:06;;;;;;;2.75;1.17;;;;;;;-145.63;30.31;39008.59;5007299;28;20085;-65
2023/09/07 11:15:36;;;;;;;4.45;1.20;;;;;;;-145.63;30.59;38977.31;5019339;28;20030;-65